sensor_id;sensor_type;location;lat;lon;timestamp;temperature;humidity
7143;DHT22;3613;48.902;9.204;2024-01-30T00:00:37;1.10;99.90
7143;DHT22;3613;48.902;9.204;2024-01-30T00:03:02;1.10;99.90
7143;DHT22;3613;48.902;9.204;2024-01-30T00:05:28;1.10;99.90
7143;DHT22;3613;48.902;9.204;2024-01-30T00:07:53;1.20;99.90
7143;DHT22;3613;48.902;9.204;2024-01-30T00:10:19;1.20;99.90
7143;DHT22;3613;48.902;9.204;2024-01-30T00:12:47;1.10;99.90
7143;DHT22;3613;48.902;9.204;2024-01-30T00:15:12;1.10;99.90
7143;DHT22;3613;48.902;9.204;2024-01-30T00:17:38;1.10;99.90
7143;DHT22;3613;48.902;9.204;2024-01-30T00:20:04;1.10;99.90
7143;DHT22;3613;48.902;9.204;2024-01-30T00:22:34;1.10;99.90
7143;DHT22;3613;48.902;9.204;2024-01-30T00:25:00;1.10;99.90
7143;DHT22;3613;48.902;9.204;2024-01-30T00:27:28;1.00;99.90
7143;DHT22;3613;48.902;9.204;2024-01-30T00:29:54;1.00;99.90
7143;DHT22;3613;48.902;9.204;2024-01-30T00:32:19;1.00;99.90
7143;DHT22;3613;48.902;9.204;2024-01-30T00:34:45;1.10;99.90
7143;DHT22;3613;48.902;9.204;2024-01-30T00:37:13;1.10;99.90
7143;DHT22;3613;48.902;9.204;2024-01-30T00:39:41;1.10;99.90
7143;DHT22;3613;48.902;9.204;2024-01-30T00:42:06;1.20;99.90
7143;DHT22;3613;48.902;9.204;2024-01-30T00:44:37;1.20;99.90
7143;DHT22;3613;48.902;9.204;2024-01-30T00:47:04;1.20;99.90
7143;DHT22;3613;48.902;9.204;2024-01-30T00:49:30;1.20;99.90
7143;DHT22;3613;48.902;9.204;2024-01-30T00:51:55;1.20;99.90
7143;DHT22;3613;48.902;9.204;2024-01-30T00:54:21;1.20;99.90
7143;DHT22;3613;48.902;9.204;2024-01-30T00:56:46;1.20;99.90
7143;DHT22;3613;48.902;9.204;2024-01-30T00:59:16;1.20;99.90
7143;DHT22;3613;48.902;9.204;2024-01-30T01:01:42;1.20;99.90
7143;DHT22;3613;48.902;9.204;2024-01-30T01:04:07;1.10;99.90
7143;DHT22;3613;48.902;9.204;2024-01-30T01:06:35;1.10;99.90
7143;DHT22;3613;48.902;9.204;2024-01-30T01:09:08;1.10;99.90
7143;DHT22;3613;48.902;9.204;2024-01-30T01:11:34;1.00;99.90
7143;DHT22;3613;48.902;9.204;2024-01-30T01:14:02;1.00;99.90
7143;DHT22;3613;48.902;9.204;2024-01-30T01:16:30;1.00;99.90
7143;DHT22;3613;48.902;9.204;2024-01-30T01:18:56;1.00;99.90
7143;DHT22;3613;48.902;9.204;2024-01-30T01:21:25;1.00;99.90
7143;DHT22;3613;48.902;9.204;2024-01-30T01:23:51;1.00;99.90
7143;DHT22;3613;48.902;9.204;2024-01-30T01:26:16;1.00;99.90
7143;DHT22;3613;48.902;9.204;2024-01-30T01:28:42;1.00;99.90
7143;DHT22;3613;48.902;9.204;2024-01-30T01:31:10;1.00;99.90
7143;DHT22;3613;48.902;9.204;2024-01-30T01:33:38;0.90;99.90
7143;DHT22;3613;48.902;9.204;2024-01-30T01:36:04;1.00;99.90
7143;DHT22;3613;48.902;9.204;2024-01-30T01:38:29;1.00;99.90
7143;DHT22;3613;48.902;9.204;2024-01-30T01:40:56;1.00;99.90
7143;DHT22;3613;48.902;9.204;2024-01-30T01:43:24;1.00;99.90
7143;DHT22;3613;48.902;9.204;2024-01-30T01:45:52;0.90;99.90
7143;DHT22;3613;48.902;9.204;2024-01-30T01:48:18;0.90;99.90
7143;DHT22;3613;48.902;9.204;2024-01-30T01:50:45;0.80;99.90
7143;DHT22;3613;48.902;9.204;2024-01-30T01:53:13;0.80;99.90
7143;DHT22;3613;48.902;9.204;2024-01-30T01:55:40;0.80;99.90
7143;DHT22;3613;48.902;9.204;2024-01-30T01:58:07;0.90;99.90
7143;DHT22;3613;48.902;9.204;2024-01-30T02:00:34;1.00;99.90
7143;DHT22;3613;48.902;9.204;2024-01-30T02:03:02;0.90;99.90
7143;DHT22;3613;48.902;9.204;2024-01-30T02:05:31;0.80;99.90
7143;DHT22;3613;48.902;9.204;2024-01-30T02:07:59;0.70;99.90
7143;DHT22;3613;48.902;9.204;2024-01-30T02:10:25;0.70;99.90
7143;DHT22;3613;48.902;9.204;2024-01-30T02:12:51;0.70;99.90
7143;DHT22;3613;48.902;9.204;2024-01-30T02:15:16;0.70;99.90
7143;DHT22;3613;48.902;9.204;2024-01-30T02:17:44;0.70;99.90
7143;DHT22;3613;48.902;9.204;2024-01-30T02:20:11;0.70;99.90
7143;DHT22;3613;48.902;9.204;2024-01-30T02:22:37;0.60;99.90
7143;DHT22;3613;48.902;9.204;2024-01-30T02:25:06;0.60;99.90
7143;DHT22;3613;48.902;9.204;2024-01-30T02:27:32;0.50;99.90
7143;DHT22;3613;48.902;9.204;2024-01-30T02:29:57;0.40;99.90
7143;DHT22;3613;48.902;9.204;2024-01-30T02:32:23;0.60;99.90
7143;DHT22;3613;48.902;9.204;2024-01-30T02:34:48;0.50;99.90
7143;DHT22;3613;48.902;9.204;2024-01-30T02:37:14;1.00;99.90
7143;DHT22;3613;48.902;9.204;2024-01-30T02:39:40;0.50;99.90
7143;DHT22;3613;48.902;9.204;2024-01-30T02:42:05;0.40;99.90
7143;DHT22;3613;48.902;9.204;2024-01-30T02:44:33;0.80;99.90
7143;DHT22;3613;48.902;9.204;2024-01-30T02:46:59;0.40;99.90
7143;DHT22;3613;48.902;9.204;2024-01-30T02:49:24;0.40;99.90
7143;DHT22;3613;48.902;9.204;2024-01-30T02:51:51;0.40;99.90
7143;DHT22;3613;48.902;9.204;2024-01-30T02:54:17;0.20;99.90
7143;DHT22;3613;48.902;9.204;2024-01-30T02:56:42;0.30;99.90
7143;DHT22;3613;48.902;9.204;2024-01-30T02:59:10;0.30;99.90
7143;DHT22;3613;48.902;9.204;2024-01-30T03:01:43;0.30;99.90
7143;DHT22;3613;48.902;9.204;2024-01-30T03:04:11;0.40;99.90
7143;DHT22;3613;48.902;9.204;2024-01-30T03:06:37;0.30;99.90
7143;DHT22;3613;48.902;9.204;2024-01-30T03:09:05;0.20;99.90
7143;DHT22;3613;48.902;9.204;2024-01-30T03:11:31;0.20;99.90
7143;DHT22;3613;48.902;9.204;2024-01-30T03:13:56;0.20;99.90
7143;DHT22;3613;48.902;9.204;2024-01-30T03:16:22;2.40;99.90
7143;DHT22;3613;48.902;9.204;2024-01-30T03:18:48;0.20;99.90
7143;DHT22;3613;48.902;9.204;2024-01-30T03:21:13;0.20;99.90
7143;DHT22;3613;48.902;9.204;2024-01-30T03:23:42;0.20;99.90
7143;DHT22;3613;48.902;9.204;2024-01-30T03:26:07;0.10;99.90
7143;DHT22;3613;48.902;9.204;2024-01-30T03:28:34;0.10;99.90
7143;DHT22;3613;48.902;9.204;2024-01-30T03:31:00;0.10;99.90
7143;DHT22;3613;48.902;9.204;2024-01-30T03:33:26;0.00;99.90
7143;DHT22;3613;48.902;9.204;2024-01-30T03:35:52;0.10;99.90
7143;DHT22;3613;48.902;9.204;2024-01-30T03:38:18;0.10;99.90
7143;DHT22;3613;48.902;9.204;2024-01-30T03:40:43;0.10;99.90
7143;DHT22;3613;48.902;9.204;2024-01-30T03:43:09;0.00;99.90
7143;DHT22;3613;48.902;9.204;2024-01-30T03:45:36;0.00;99.90
7143;DHT22;3613;48.902;9.204;2024-01-30T03:48:02;0.10;99.90
7143;DHT22;3613;48.902;9.204;2024-01-30T03:50:30;0.10;99.90
7143;DHT22;3613;48.902;9.204;2024-01-30T03:52:56;0.10;99.90
7143;DHT22;3613;48.902;9.204;2024-01-30T03:55:23;0.00;99.90
7143;DHT22;3613;48.902;9.204;2024-01-30T03:57:49;0.10;99.90
7143;DHT22;3613;48.902;9.204;2024-01-30T04:00:15;0.10;99.90
7143;DHT22;3613;48.902;9.204;2024-01-30T04:02:41;0.00;99.90
7143;DHT22;3613;48.902;9.204;2024-01-30T04:05:08;0.00;99.90
7143;DHT22;3613;48.902;9.204;2024-01-30T04:07:36;0.00;99.90
7143;DHT22;3613;48.902;9.204;2024-01-30T04:10:06;0.00;99.90
7143;DHT22;3613;48.902;9.204;2024-01-30T04:12:32;-0.10;99.90
7143;DHT22;3613;48.902;9.204;2024-01-30T04:14:58;0.00;99.90
7143;DHT22;3613;48.902;9.204;2024-01-30T04:17:25;-0.10;99.90
7143;DHT22;3613;48.902;9.204;2024-01-30T04:19:51;-0.10;99.90
7143;DHT22;3613;48.902;9.204;2024-01-30T04:22:17;-0.10;99.90
7143;DHT22;3613;48.902;9.204;2024-01-30T04:24:42;-0.10;99.90
7143;DHT22;3613;48.902;9.204;2024-01-30T04:27:10;-0.10;99.90
7143;DHT22;3613;48.902;9.204;2024-01-30T04:29:36;-0.10;99.90
7143;DHT22;3613;48.902;9.204;2024-01-30T04:32:01;0.00;99.90
7143;DHT22;3613;48.902;9.204;2024-01-30T04:34:30;0.00;99.90
7143;DHT22;3613;48.902;9.204;2024-01-30T04:36:55;0.00;99.90
7143;DHT22;3613;48.902;9.204;2024-01-30T04:39:21;2.40;99.90
7143;DHT22;3613;48.902;9.204;2024-01-30T04:41:46;0.00;99.90
7143;DHT22;3613;48.902;9.204;2024-01-30T04:44:12;0.00;99.90
7143;DHT22;3613;48.902;9.204;2024-01-30T04:46:38;-0.10;99.90
7143;DHT22;3613;48.902;9.204;2024-01-30T04:49:03;-0.20;99.90
7143;DHT22;3613;48.902;9.204;2024-01-30T04:51:35;-0.20;99.90
7143;DHT22;3613;48.902;9.204;2024-01-30T04:54:00;-0.20;99.90
7143;DHT22;3613;48.902;9.204;2024-01-30T04:56:28;-0.20;99.90
7143;DHT22;3613;48.902;9.204;2024-01-30T04:58:54;-0.30;99.90
7143;DHT22;3613;48.902;9.204;2024-01-30T05:01:19;-0.30;99.90
7143;DHT22;3613;48.902;9.204;2024-01-30T05:03:50;-0.30;99.90
7143;DHT22;3613;48.902;9.204;2024-01-30T05:06:24;-0.30;99.90
7143;DHT22;3613;48.902;9.204;2024-01-30T05:08:50;-0.30;99.90
7143;DHT22;3613;48.902;9.204;2024-01-30T05:11:18;-0.40;99.90
7143;DHT22;3613;48.902;9.204;2024-01-30T05:13:46;-0.30;99.90
7143;DHT22;3613;48.902;9.204;2024-01-30T05:16:15;-0.30;99.90
7143;DHT22;3613;48.902;9.204;2024-01-30T05:18:41;-0.40;99.90
7143;DHT22;3613;48.902;9.204;2024-01-30T05:21:11;-0.40;99.90
7143;DHT22;3613;48.902;9.204;2024-01-30T05:23:39;-0.40;99.90
7143;DHT22;3613;48.902;9.204;2024-01-30T05:26:05;-0.40;99.90
7143;DHT22;3613;48.902;9.204;2024-01-30T05:28:32;-0.40;99.90
7143;DHT22;3613;48.902;9.204;2024-01-30T05:31:00;-0.40;99.90
7143;DHT22;3613;48.902;9.204;2024-01-30T05:33:28;-0.40;99.90
7143;DHT22;3613;48.902;9.204;2024-01-30T05:35:53;-0.40;99.90
7143;DHT22;3613;48.902;9.204;2024-01-30T05:38:24;-0.40;99.90
7143;DHT22;3613;48.902;9.204;2024-01-30T05:40:52;-0.40;99.90
7143;DHT22;3613;48.902;9.204;2024-01-30T05:43:18;-0.40;99.90
7143;DHT22;3613;48.902;9.204;2024-01-30T05:45:44;-0.40;99.90
7143;DHT22;3613;48.902;9.204;2024-01-30T05:48:09;-0.40;99.90
7143;DHT22;3613;48.902;9.204;2024-01-30T05:50:37;-0.40;99.90
7143;DHT22;3613;48.902;9.204;2024-01-30T05:53:03;-0.40;99.90
7143;DHT22;3613;48.902;9.204;2024-01-30T05:55:31;-0.30;99.90
7143;DHT22;3613;48.902;9.204;2024-01-30T05:57:56;-0.30;99.90
7143;DHT22;3613;48.902;9.204;2024-01-30T06:00:22;-0.30;99.90
7143;DHT22;3613;48.902;9.204;2024-01-30T06:02:48;-0.30;99.90
7143;DHT22;3613;48.902;9.204;2024-01-30T06:05:16;-0.30;99.90
7143;DHT22;3613;48.902;9.204;2024-01-30T06:07:43;-0.20;99.90
7143;DHT22;3613;48.902;9.204;2024-01-30T06:10:09;-0.20;99.90
7143;DHT22;3613;48.902;9.204;2024-01-30T06:12:35;-1.80;99.90
7143;DHT22;3613;48.902;9.204;2024-01-30T06:15:01;-0.20;99.90
7143;DHT22;3613;48.902;9.204;2024-01-30T06:17:27;-0.20;99.90
7143;DHT22;3613;48.902;9.204;2024-01-30T06:19:56;-0.20;99.90
7143;DHT22;3613;48.902;9.204;2024-01-30T06:22:23;-0.20;99.90
7143;DHT22;3613;48.902;9.204;2024-01-30T06:24:49;-0.10;99.90
7143;DHT22;3613;48.902;9.204;2024-01-30T06:27:15;-0.10;99.90
7143;DHT22;3613;48.902;9.204;2024-01-30T06:29:41;-0.10;99.90
7143;DHT22;3613;48.902;9.204;2024-01-30T06:32:08;0.00;99.90
7143;DHT22;3613;48.902;9.204;2024-01-30T06:34:33;-0.10;99.90
7143;DHT22;3613;48.902;9.204;2024-01-30T06:36:59;-0.10;99.90
7143;DHT22;3613;48.902;9.204;2024-01-30T06:39:27;-0.20;99.90
7143;DHT22;3613;48.902;9.204;2024-01-30T06:41:52;-0.20;99.90
7143;DHT22;3613;48.902;9.204;2024-01-30T06:44:18;-0.20;99.90
7143;DHT22;3613;48.902;9.204;2024-01-30T06:46:44;-0.20;99.90
7143;DHT22;3613;48.902;9.204;2024-01-30T06:49:12;-0.30;99.90
7143;DHT22;3613;48.902;9.204;2024-01-30T06:51:37;-0.20;99.90
7143;DHT22;3613;48.902;9.204;2024-01-30T06:54:03;-0.20;99.90
7143;DHT22;3613;48.902;9.204;2024-01-30T06:56:29;-0.20;99.90
7143;DHT22;3613;48.902;9.204;2024-01-30T06:58:55;-0.30;99.90
7143;DHT22;3613;48.902;9.204;2024-01-30T07:01:20;-0.20;99.90
7143;DHT22;3613;48.902;9.204;2024-01-30T07:03:46;-0.20;99.90
7143;DHT22;3613;48.902;9.204;2024-01-30T07:06:12;-0.20;99.90
7143;DHT22;3613;48.902;9.204;2024-01-30T07:08:37;-0.10;99.90
7143;DHT22;3613;48.902;9.204;2024-01-30T07:11:08;-0.10;99.90
7143;DHT22;3613;48.902;9.204;2024-01-30T07:13:34;-0.10;99.90
7143;DHT22;3613;48.902;9.204;2024-01-30T07:16:00;0.00;99.90
7143;DHT22;3613;48.902;9.204;2024-01-30T07:18:28;0.10;99.90
7143;DHT22;3613;48.902;9.204;2024-01-30T07:20:58;0.10;99.90
7143;DHT22;3613;48.902;9.204;2024-01-30T07:23:24;0.10;99.90
7143;DHT22;3613;48.902;9.204;2024-01-30T07:25:49;0.20;99.90
7143;DHT22;3613;48.902;9.204;2024-01-30T07:28:15;0.30;99.90
7143;DHT22;3613;48.902;9.204;2024-01-30T07:30:43;0.30;99.90
7143;DHT22;3613;48.902;9.204;2024-01-30T07:33:09;0.40;99.90
7143;DHT22;3613;48.902;9.204;2024-01-30T07:35:35;0.50;99.90
7143;DHT22;3613;48.902;9.204;2024-01-30T07:38:01;0.50;99.90
7143;DHT22;3613;48.902;9.204;2024-01-30T07:40:27;0.60;99.90
7143;DHT22;3613;48.902;9.204;2024-01-30T07:42:56;0.70;99.90
7143;DHT22;3613;48.902;9.204;2024-01-30T07:45:23;0.70;99.90
7143;DHT22;3613;48.902;9.204;2024-01-30T07:47:53;0.70;99.90
7143;DHT22;3613;48.902;9.204;2024-01-30T07:50:19;0.90;99.90
7143;DHT22;3613;48.902;9.204;2024-01-30T07:52:44;0.90;99.90
7143;DHT22;3613;48.902;9.204;2024-01-30T07:55:10;1.00;99.90
7143;DHT22;3613;48.902;9.204;2024-01-30T07:57:40;1.20;99.90
7143;DHT22;3613;48.902;9.204;2024-01-30T08:00:07;1.20;99.90
7143;DHT22;3613;48.902;9.204;2024-01-30T08:02:37;1.30;99.90
7143;DHT22;3613;48.902;9.204;2024-01-30T08:05:03;1.50;99.90
7143;DHT22;3613;48.902;9.204;2024-01-30T08:07:28;1.60;99.90
7143;DHT22;3613;48.902;9.204;2024-01-30T08:09:55;1.80;99.90
7143;DHT22;3613;48.902;9.204;2024-01-30T08:12:21;1.90;99.90
7143;DHT22;3613;48.902;9.204;2024-01-30T08:14:47;2.00;99.90
7143;DHT22;3613;48.902;9.204;2024-01-30T08:17:12;2.10;99.90
7143;DHT22;3613;48.902;9.204;2024-01-30T08:19:38;3.80;99.90
7143;DHT22;3613;48.902;9.204;2024-01-30T08:22:03;2.50;99.90
7143;DHT22;3613;48.902;9.204;2024-01-30T08:24:31;2.60;99.90
7143;DHT22;3613;48.902;9.204;2024-01-30T08:26:57;2.70;99.90
7143;DHT22;3613;48.902;9.204;2024-01-30T08:29:25;3.00;99.90
7143;DHT22;3613;48.902;9.204;2024-01-30T08:31:51;3.30;99.90
7143;DHT22;3613;48.902;9.204;2024-01-30T08:34:17;3.40;99.90
7143;DHT22;3613;48.902;9.204;2024-01-30T08:36:44;3.50;99.90
7143;DHT22;3613;48.902;9.204;2024-01-30T08:39:13;3.80;99.90
7143;DHT22;3613;48.902;9.204;2024-01-30T08:41:40;4.30;99.90
7143;DHT22;3613;48.902;9.204;2024-01-30T08:44:05;4.60;99.90
7143;DHT22;3613;48.902;9.204;2024-01-30T08:46:31;4.80;99.90
7143;DHT22;3613;48.902;9.204;2024-01-30T08:48:59;5.20;99.90
7143;DHT22;3613;48.902;9.204;2024-01-30T08:51:27;5.70;99.90
7143;DHT22;3613;48.902;9.204;2024-01-30T08:53:52;6.20;99.90
7143;DHT22;3613;48.902;9.204;2024-01-30T08:56:22;6.50;99.90
7143;DHT22;3613;48.902;9.204;2024-01-30T08:58:50;6.80;99.90
7143;DHT22;3613;48.902;9.204;2024-01-30T09:01:18;6.90;99.90
7143;DHT22;3613;48.902;9.204;2024-01-30T09:03:43;7.10;99.90
7143;DHT22;3613;48.902;9.204;2024-01-30T09:06:15;7.00;99.90
7143;DHT22;3613;48.902;9.204;2024-01-30T09:08:43;6.90;99.90
7143;DHT22;3613;48.902;9.204;2024-01-30T09:11:13;7.00;99.90
7143;DHT22;3613;48.902;9.204;2024-01-30T09:13:41;6.70;99.90
7143;DHT22;3613;48.902;9.204;2024-01-30T09:16:09;6.40;99.90
7143;DHT22;3613;48.902;9.204;2024-01-30T09:18:37;6.30;99.90
7143;DHT22;3613;48.902;9.204;2024-01-30T09:21:03;6.50;99.90
7143;DHT22;3613;48.902;9.204;2024-01-30T09:23:28;6.60;99.90
7143;DHT22;3613;48.902;9.204;2024-01-30T09:25:54;6.70;99.90
7143;DHT22;3613;48.902;9.204;2024-01-30T09:28:23;7.00;99.90
7143;DHT22;3613;48.902;9.204;2024-01-30T09:30:53;7.30;99.90
7143;DHT22;3613;48.902;9.204;2024-01-30T09:33:20;7.70;99.90
7143;DHT22;3613;48.902;9.204;2024-01-30T09:35:48;7.90;99.90
7143;DHT22;3613;48.902;9.204;2024-01-30T09:38:17;8.10;99.90
7143;DHT22;3613;48.902;9.204;2024-01-30T09:40:42;8.20;99.90
7143;DHT22;3613;48.902;9.204;2024-01-30T09:43:15;8.50;99.90
7143;DHT22;3613;48.902;9.204;2024-01-30T09:45:42;8.50;99.90
7143;DHT22;3613;48.902;9.204;2024-01-30T09:48:12;8.30;99.90
7143;DHT22;3613;48.902;9.204;2024-01-30T09:50:38;8.10;99.90
7143;DHT22;3613;48.902;9.204;2024-01-30T09:53:05;8.00;99.90
7143;DHT22;3613;48.902;9.204;2024-01-30T09:55:31;8.00;99.90
7143;DHT22;3613;48.902;9.204;2024-01-30T09:57:57;8.20;99.90
7143;DHT22;3613;48.902;9.204;2024-01-30T10:00:25;8.30;99.90
7143;DHT22;3613;48.902;9.204;2024-01-30T10:02:55;8.50;99.90
7143;DHT22;3613;48.902;9.204;2024-01-30T10:05:26;8.50;99.90
7143;DHT22;3613;48.902;9.204;2024-01-30T10:07:58;8.70;99.90
7143;DHT22;3613;48.902;9.204;2024-01-30T10:10:24;8.90;99.90
7143;DHT22;3613;48.902;9.204;2024-01-30T10:12:50;9.00;99.90
7143;DHT22;3613;48.902;9.204;2024-01-30T10:15:16;9.20;99.90
7143;DHT22;3613;48.902;9.204;2024-01-30T10:17:42;9.20;99.90
7143;DHT22;3613;48.902;9.204;2024-01-30T10:20:09;9.70;99.90
7143;DHT22;3613;48.902;9.204;2024-01-30T10:22:35;9.00;99.90
7143;DHT22;3613;48.902;9.204;2024-01-30T10:25:01;8.90;99.90
7143;DHT22;3613;48.902;9.204;2024-01-30T10:27:29;9.00;99.90
7143;DHT22;3613;48.902;9.204;2024-01-30T10:29:55;9.20;99.90
7143;DHT22;3613;48.902;9.204;2024-01-30T10:32:21;8.90;99.90
7143;DHT22;3613;48.902;9.204;2024-01-30T10:34:50;9.00;99.90
7143;DHT22;3613;48.902;9.204;2024-01-30T10:37:16;9.10;99.90
7143;DHT22;3613;48.902;9.204;2024-01-30T10:39:49;9.10;99.90
7143;DHT22;3613;48.902;9.204;2024-01-30T10:42:19;9.00;99.90
7143;DHT22;3613;48.902;9.204;2024-01-30T10:45:10;9.00;99.90
7143;DHT22;3613;48.902;9.204;2024-01-30T10:47:49;9.20;99.90
7143;DHT22;3613;48.902;9.204;2024-01-30T10:50:18;9.20;99.90
7143;DHT22;3613;48.902;9.204;2024-01-30T10:52:44;9.40;99.90
7143;DHT22;3613;48.902;9.204;2024-01-30T10:55:10;9.50;99.90
7143;DHT22;3613;48.902;9.204;2024-01-30T10:57:37;9.50;99.90
7143;DHT22;3613;48.902;9.204;2024-01-30T11:00:07;9.50;99.90
7143;DHT22;3613;48.902;9.204;2024-01-30T11:02:40;9.40;99.90
7143;DHT22;3613;48.902;9.204;2024-01-30T11:05:06;9.30;99.90
7143;DHT22;3613;48.902;9.204;2024-01-30T11:07:33;9.20;99.90
7143;DHT22;3613;48.902;9.204;2024-01-30T11:12:31;9.20;99.90
7143;DHT22;3613;48.902;9.204;2024-01-30T11:17:53;9.10;99.90
7143;DHT22;3613;48.902;9.204;2024-01-30T11:22:52;9.20;99.90
7143;DHT22;3613;48.902;9.204;2024-01-30T11:25:20;9.20;99.90
7143;DHT22;3613;48.902;9.204;2024-01-30T11:27:47;9.30;99.90
7143;DHT22;3613;48.902;9.204;2024-01-30T11:30:24;9.40;99.90
7143;DHT22;3613;48.902;9.204;2024-01-30T11:35:44;10.40;99.90
7143;DHT22;3613;48.902;9.204;2024-01-30T11:38:16;9.40;99.90
7143;DHT22;3613;48.902;9.204;2024-01-30T11:40:44;9.30;99.90
7143;DHT22;3613;48.902;9.204;2024-01-30T11:43:09;9.30;99.90
7143;DHT22;3613;48.902;9.204;2024-01-30T11:45:36;9.30;99.90
7143;DHT22;3613;48.902;9.204;2024-01-30T11:48:05;9.40;99.90
7143;DHT22;3613;48.902;9.204;2024-01-30T11:50:32;9.50;99.90
7143;DHT22;3613;48.902;9.204;2024-01-30T11:53:00;9.60;99.90
7143;DHT22;3613;48.902;9.204;2024-01-30T11:55:27;9.80;99.90
7143;DHT22;3613;48.902;9.204;2024-01-30T11:57:57;10.10;99.90
7143;DHT22;3613;48.902;9.204;2024-01-30T12:00:26;10.30;99.90
7143;DHT22;3613;48.902;9.204;2024-01-30T12:02:55;9.50;99.90
7143;DHT22;3613;48.902;9.204;2024-01-30T12:05:30;10.50;99.90
7143;DHT22;3613;48.902;9.204;2024-01-30T12:07:56;10.50;99.90
7143;DHT22;3613;48.902;9.204;2024-01-30T12:10:24;10.60;99.90
7143;DHT22;3613;48.902;9.204;2024-01-30T12:12:50;10.60;99.90
7143;DHT22;3613;48.902;9.204;2024-01-30T12:15:17;10.60;99.90
7143;DHT22;3613;48.902;9.204;2024-01-30T12:17:45;10.70;99.90
7143;DHT22;3613;48.902;9.204;2024-01-30T12:20:12;10.70;99.90
7143;DHT22;3613;48.902;9.204;2024-01-30T12:25:12;10.70;99.90
7143;DHT22;3613;48.902;9.204;2024-01-30T12:27:39;10.60;99.90
7143;DHT22;3613;48.902;9.204;2024-01-30T12:30:09;10.70;99.90
7143;DHT22;3613;48.902;9.204;2024-01-30T12:32:41;10.60;99.90
7143;DHT22;3613;48.902;9.204;2024-01-30T12:35:10;10.60;99.90
7143;DHT22;3613;48.902;9.204;2024-01-30T12:37:43;10.70;99.90
7143;DHT22;3613;48.902;9.204;2024-01-30T12:40:10;10.80;99.90
7143;DHT22;3613;48.902;9.204;2024-01-30T12:42:36;10.80;99.90
7143;DHT22;3613;48.902;9.204;2024-01-30T12:45:05;10.80;99.90
7143;DHT22;3613;48.902;9.204;2024-01-30T12:47:32;10.90;99.90
7143;DHT22;3613;48.902;9.204;2024-01-30T12:49:58;10.90;99.90
7143;DHT22;3613;48.902;9.204;2024-01-30T12:52:23;11.10;99.90
7143;DHT22;3613;48.902;9.204;2024-01-30T12:54:50;12.30;99.90
7143;DHT22;3613;48.902;9.204;2024-01-30T12:57:17;11.70;99.90
7143;DHT22;3613;48.902;9.204;2024-01-30T12:59:43;12.10;99.90
7143;DHT22;3613;48.902;9.204;2024-01-30T13:02:11;12.40;99.90
7143;DHT22;3613;48.902;9.204;2024-01-30T13:04:37;12.70;99.90
7143;DHT22;3613;48.902;9.204;2024-01-30T13:07:05;12.90;99.90
7143;DHT22;3613;48.902;9.204;2024-01-30T13:09:33;12.70;99.90
7143;DHT22;3613;48.902;9.204;2024-01-30T13:11:59;12.70;99.90
7143;DHT22;3613;48.902;9.204;2024-01-30T13:14:25;12.60;99.90
7143;DHT22;3613;48.902;9.204;2024-01-30T13:16:53;12.50;99.90
7143;DHT22;3613;48.902;9.204;2024-01-30T13:19:19;12.70;99.90
7143;DHT22;3613;48.902;9.204;2024-01-30T13:21:47;13.30;99.90
7143;DHT22;3613;48.902;9.204;2024-01-30T13:24:15;13.50;99.90
7143;DHT22;3613;48.902;9.204;2024-01-30T13:26:42;13.90;99.90
7143;DHT22;3613;48.902;9.204;2024-01-30T13:29:08;14.30;6.30
7143;DHT22;3613;48.902;9.204;2024-01-30T13:31:34;14.70;1.00
7143;DHT22;3613;48.902;9.204;2024-01-30T13:34:00;14.60;1.00
7143;DHT22;3613;48.902;9.204;2024-01-30T13:36:25;14.20;1.00
7143;DHT22;3613;48.902;9.204;2024-01-30T13:38:51;13.60;1.00
7143;DHT22;3613;48.902;9.204;2024-01-30T13:41:17;13.20;1.00
7143;DHT22;3613;48.902;9.204;2024-01-30T13:43:45;12.80;1.00
7143;DHT22;3613;48.902;9.204;2024-01-30T13:46:10;12.50;1.00
7143;DHT22;3613;48.902;9.204;2024-01-30T13:48:36;12.50;1.00
7143;DHT22;3613;48.902;9.204;2024-01-30T13:51:02;12.40;1.00
7143;DHT22;3613;48.902;9.204;2024-01-30T13:53:27;12.40;1.00
7143;DHT22;3613;48.902;9.204;2024-01-30T13:55:53;12.30;1.00
7143;DHT22;3613;48.902;9.204;2024-01-30T13:58:19;12.30;1.00
7143;DHT22;3613;48.902;9.204;2024-01-30T14:00:45;12.10;99.90
7143;DHT22;3613;48.902;9.204;2024-01-30T14:03:11;11.90;99.90
7143;DHT22;3613;48.902;9.204;2024-01-30T14:05:39;11.70;99.90
7143;DHT22;3613;48.902;9.204;2024-01-30T14:08:06;11.70;1.00
7143;DHT22;3613;48.902;9.204;2024-01-30T14:10:32;11.60;99.90
7143;DHT22;3613;48.902;9.204;2024-01-30T14:12:58;11.60;99.90
7143;DHT22;3613;48.902;9.204;2024-01-30T14:15:24;11.60;99.90
7143;DHT22;3613;48.902;9.204;2024-01-30T14:17:49;11.60;99.90
7143;DHT22;3613;48.902;9.204;2024-01-30T14:20:15;11.60;99.90
7143;DHT22;3613;48.902;9.204;2024-01-30T14:22:46;11.50;99.90
7143;DHT22;3613;48.902;9.204;2024-01-30T14:25:14;11.40;99.90
7143;DHT22;3613;48.902;9.204;2024-01-30T14:27:43;11.30;99.90
7143;DHT22;3613;48.902;9.204;2024-01-30T14:30:12;11.40;99.90
7143;DHT22;3613;48.902;9.204;2024-01-30T14:32:37;11.30;99.90
7143;DHT22;3613;48.902;9.204;2024-01-30T14:35:07;11.30;99.90
7143;DHT22;3613;48.902;9.204;2024-01-30T14:37:36;11.10;99.90
7143;DHT22;3613;48.902;9.204;2024-01-30T14:40:03;11.10;99.90
7143;DHT22;3613;48.902;9.204;2024-01-30T14:42:32;11.10;99.90
7143;DHT22;3613;48.902;9.204;2024-01-30T14:45:01;11.00;99.90
7143;DHT22;3613;48.902;9.204;2024-01-30T14:47:26;11.10;99.90
7143;DHT22;3613;48.902;9.204;2024-01-30T14:49:52;10.90;99.90
7143;DHT22;3613;48.902;9.204;2024-01-30T14:52:18;10.90;99.90
7143;DHT22;3613;48.902;9.204;2024-01-30T14:54:43;12.40;99.90
7143;DHT22;3613;48.902;9.204;2024-01-30T14:57:09;10.80;99.90
7143;DHT22;3613;48.902;9.204;2024-01-30T14:59:39;10.80;99.90
7143;DHT22;3613;48.902;9.204;2024-01-30T15:02:06;10.80;99.90
7143;DHT22;3613;48.902;9.204;2024-01-30T15:04:31;10.70;99.90
7143;DHT22;3613;48.902;9.204;2024-01-30T15:06:59;10.60;99.90
7143;DHT22;3613;48.902;9.204;2024-01-30T15:09:25;10.60;99.90
7143;DHT22;3613;48.902;9.204;2024-01-30T15:11:54;10.40;99.90
7143;DHT22;3613;48.902;9.204;2024-01-30T15:14:22;10.40;99.90
7143;DHT22;3613;48.902;9.204;2024-01-30T15:16:48;10.30;99.90
7143;DHT22;3613;48.902;9.204;2024-01-30T15:19:13;10.20;99.90
7143;DHT22;3613;48.902;9.204;2024-01-30T15:21:40;10.10;99.90
7143;DHT22;3613;48.902;9.204;2024-01-30T15:24:08;10.10;99.90
7143;DHT22;3613;48.902;9.204;2024-01-30T15:26:36;10.00;99.90
7143;DHT22;3613;48.902;9.204;2024-01-30T15:29:02;9.90;99.90
7143;DHT22;3613;48.902;9.204;2024-01-30T15:31:28;9.90;99.90
7143;DHT22;3613;48.902;9.204;2024-01-30T15:33:56;9.80;99.90
7143;DHT22;3613;48.902;9.204;2024-01-30T15:36:23;9.70;99.90
7143;DHT22;3613;48.902;9.204;2024-01-30T15:38:51;9.70;99.90
7143;DHT22;3613;48.902;9.204;2024-01-30T15:41:17;9.70;99.90
7143;DHT22;3613;48.902;9.204;2024-01-30T15:43:45;9.60;99.90
7143;DHT22;3613;48.902;9.204;2024-01-30T15:46:10;9.50;99.90
7143;DHT22;3613;48.902;9.204;2024-01-30T15:48:36;9.40;99.90
7143;DHT22;3613;48.902;9.204;2024-01-30T15:51:02;9.20;99.90
7143;DHT22;3613;48.902;9.204;2024-01-30T15:53:28;9.10;99.90
7143;DHT22;3613;48.902;9.204;2024-01-30T15:55:55;9.00;99.90
7143;DHT22;3613;48.902;9.204;2024-01-30T15:58:21;8.90;99.90
7143;DHT22;3613;48.902;9.204;2024-01-30T16:00:55;8.90;99.90
7143;DHT22;3613;48.902;9.204;2024-01-30T16:03:21;8.80;99.90
7143;DHT22;3613;48.902;9.204;2024-01-30T16:05:46;8.70;99.90
7143;DHT22;3613;48.902;9.204;2024-01-30T16:08:12;8.60;99.90
7143;DHT22;3613;48.902;9.204;2024-01-30T16:10:40;8.50;99.90
7143;DHT22;3613;48.902;9.204;2024-01-30T16:13:10;8.50;99.90
7143;DHT22;3613;48.902;9.204;2024-01-30T16:15:36;8.40;99.90
7143;DHT22;3613;48.902;9.204;2024-01-30T16:18:01;8.40;99.90
7143;DHT22;3613;48.902;9.204;2024-01-30T16:20:27;8.30;99.90
7143;DHT22;3613;48.902;9.204;2024-01-30T16:22:55;8.30;99.90